Time;durP1;ratioP1;P1;durP2;ratioP2;P2;SDS_P1;SDS_P2;PMS_P1;PMS_P2;Temp;Humidity;BMP_temperature;BMP_pressure;BME280_temperature;BME280_humidity;BME280_pressure;Samples;Min_cycle;Max_cycle;Signal;HPM_P1;HPM_P2
2023/08/03 00:00:24;;;;;;;19.02;17.17;;;;;;;;;;5054495;28;20025;-78
2023/08/03 00:02:50;;;;;;;15.77;14.20;;;;;;;;;;5054835;28;20056;-77
2023/08/03 00:05:19;;;;;;;12.95;11.65;;;;;;;;;;5054400;28;20479;-78
2023/08/03 00:07:45;;;;;;;10.93;9.82;;;;;;;;;;5054742;28;20110;-78
2023/08/03 00:10:11;;;;;;;9.88;8.23;;;;;;;;;;5054359;28;20025;-78
2023/08/03 00:12:37;;;;;;;8.30;7.50;;;;;;;;;;5054438;28;20033;-78
2023/08/03 00:15:04;;;;;;;7.80;6.75;;;;;;;;;;5054334;28;20033;-77
2023/08/03 00:17:30;;;;;;;7.40;6.63;;;;;;;;;;5054043;28;20029;-78
2023/08/03 00:19:57;;;;;;;8.75;6.28;;;;;;;;;;5054573;28;20021;-78
2023/08/03 00:22:23;;;;;;;6.93;6.00;;;;;;;;;;5054155;28;20025;-78
2023/08/03 00:24:50;;;;;;;7.20;5.43;;;;;;;;;;5054459;28;20029;-78
2023/08/03 00:27:16;;;;;;;6.05;5.45;;;;;;;;;;5054172;28;20103;-77
2023/08/03 00:29:42;;;;;;;6.45;5.05;;;;;;;;;;5053873;28;20036;-77
2023/08/03 00:32:08;;;;;;;6.10;4.70;;;;;;;;;;5054215;28;20344;-78
2023/08/03 00:34:43;;;;;;;4.78;4.18;;;;;;;;;;5054064;28;20037;-78
2023/08/03 00:37:11;;;;;;;5.70;4.35;;;;;;;;;;5053984;28;20049;-77
2023/08/03 00:39:40;;;;;;;6.05;4.20;;;;;;;;;;5053970;28;20059;-78
2023/08/03 00:42:06;;;;;;;5.75;4.00;;;;;;;;;;5054347;28;20029;-77
2023/08/03 00:44:33;;;;;;;5.22;4.10;;;;;;;;;;5054232;28;20033;-77
2023/08/03 00:46:59;;;;;;;7.53;4.00;;;;;;;;;;5054374;28;20056;-77
2023/08/03 00:49:28;;;;;;;4.95;4.10;;;;;;;;;;5053977;28;20029;-77
2023/08/03 00:51:58;;;;;;;5.40;3.85;;;;;;;;;;5053992;28;20029;-77
2023/08/03 00:54:24;;;;;;;4.45;4.03;;;;;;;;;;5053758;28;20025;-78
2023/08/03 00:56:51;;;;;;;6.68;4.10;;;;;;;;;;5053776;28;20033;-78
2023/08/03 00:59:17;;;;;;;7.65;4.20;;;;;;;;;;5053682;28;20494;-73
2023/08/03 01:01:43;;;;;;;5.45;4.00;;;;;;;;;;5053371;28;20021;-73
2023/08/03 01:04:10;;;;;;;5.13;4.00;;;;;;;;;;5053449;28;20037;-73
2023/08/03 01:06:36;;;;;;;4.80;4.03;;;;;;;;;;5053312;28;20028;-73
2023/08/03 01:09:06;;;;;;;5.68;4.00;;;;;;;;;;5053393;28;20017;-73
2023/08/03 01:11:35;;;;;;;5.82;4.40;;;;;;;;;;5053468;28;20025;-74
2023/08/03 01:14:01;;;;;;;5.38;4.30;;;;;;;;;;5053457;28;20096;-73
2023/08/03 01:16:28;;;;;;;4.40;4.00;;;;;;;;;;5053037;28;20379;-74
2023/08/03 01:18:54;;;;;;;5.78;4.30;;;;;;;;;;5052982;28;20029;-74
2023/08/03 01:21:21;;;;;;;5.40;4.57;;;;;;;;;;5053338;28;20025;-73
2023/08/03 01:23:48;;;;;;;7.13;4.43;;;;;;;;;;5053065;28;20470;-77
2023/08/03 01:26:14;;;;;;;8.82;5.28;;;;;;;;;;5053051;28;20061;-77
2023/08/03 01:28:40;;;;;;;5.22;4.72;;;;;;;;;;5052907;28;20021;-77
2023/08/03 01:31:06;;;;;;;5.70;4.95;;;;;;;;;;5052947;28;20037;-77
2023/08/03 01:33:32;;;;;;;5.60;4.63;;;;;;;;;;5053135;28;20394;-77
2023/08/03 01:35:59;;;;;;;5.55;4.90;;;;;;;;;;5053174;28;20860;-77
2023/08/03 01:38:25;;;;;;;6.60;5.10;;;;;;;;;;5052605;28;20179;-77
2023/08/03 01:40:51;;;;;;;7.65;5.00;;;;;;;;;;5052925;28;20033;-77
2023/08/03 01:43:17;;;;;;;6.60;5.07;;;;;;;;;;5052759;28;20036;-77
2023/08/03 01:45:43;;;;;;;5.72;4.90;;;;;;;;;;5052515;28;20418;-77
2023/08/03 01:48:09;;;;;;;5.60;4.80;;;;;;;;;;5052153;28;20039;-77
2023/08/03 01:50:35;;;;;;;7.93;5.15;;;;;;;;;;5052480;28;20475;-77
2023/08/03 01:53:01;;;;;;;6.35;5.38;;;;;;;;;;5052638;28;20475;-77
2023/08/03 01:55:27;;;;;;;5.93;5.05;;;;;;;;;;5052292;28;20025;-77
2023/08/03 01:57:54;;;;;;;5.88;5.15;;;;;;;;;;5052371;28;20074;-77
2023/08/03 02:00:27;;;;;;;7.68;5.43;;;;;;;;;;5052741;28;20474;-77
2023/08/03 02:02:53;;;;;;;7.50;5.18;;;;;;;;;;5052617;28;20032;-77
2023/08/03 02:05:19;;;;;;;5.85;4.90;;;;;;;;;;5052262;28;20025;-74
2023/08/03 02:07:54;;;;;;;5.65;4.97;;;;;;;;;;5052443;28;20392;-74
2023/08/03 02:10:23;;;;;;;6.55;5.03;;;;;;;;;;5052183;28;20017;-73
2023/08/03 02:12:49;;;;;;;5.47;4.72;;;;;;;;;;5052476;28;20021;-74
2023/08/03 02:15:16;;;;;;;5.65;5.05;;;;;;;;;;5052184;28;20453;-73
2023/08/03 02:17:45;;;;;;;5.70;5.00;;;;;;;;;;5051883;28;20491;-73
2023/08/03 02:20:15;;;;;;;6.45;5.30;;;;;;;;;;5051877;28;20036;-73
2023/08/03 02:22:42;;;;;;;9.48;5.82;;;;;;;;;;5052245;28;20028;-73
2023/08/03 02:25:08;;;;;;;6.47;5.20;;;;;;;;;;5052270;28;20446;-73
2023/08/03 02:27:37;;;;;;;5.50;5.00;;;;;;;;;;5052230;28;20043;-73
2023/08/03 02:30:04;;;;;;;5.85;5.25;;;;;;;;;;5051728;28;20071;-74
2023/08/03 02:32:30;;;;;;;7.35;5.30;;;;;;;;;;5051968;28;20410;-73
2023/08/03 02:34:56;;;;;;;12.10;5.80;;;;;;;;;;5051932;28;20112;-73
2023/08/03 02:37:22;;;;;;;5.88;4.93;;;;;;;;;;5051729;28;20095;-74
2023/08/03 02:39:48;;;;;;;6.53;5.03;;;;;;;;;;5052034;28;20084;-73
2023/08/03 02:42:14;;;;;;;6.72;5.38;;;;;;;;;;5051981;28;20036;-73
2023/08/03 02:44:43;;;;;;;5.57;5.07;;;;;;;;;;5051646;28;20491;-74
2023/08/03 02:47:13;;;;;;;6.85;5.82;;;;;;;;;;5051625;28;20035;-73
2023/08/03 02:49:39;;;;;;;7.40;5.45;;;;;;;;;;5051699;28;20052;-74
2023/08/03 02:52:05;;;;;;;6.72;5.35;;;;;;;;;;5051849;28;20494;-74
2023/08/03 02:54:31;;;;;;;7.15;5.30;;;;;;;;;;5051867;28;20532;-74
2023/08/03 02:56:57;;;;;;;5.85;5.13;;;;;;;;;;5051848;28;20029;-77
2023/08/03 02:59:23;;;;;;;8.40;5.20;;;;;;;;;;5053964;28;20052;-77
2023/08/03 03:01:50;;;;;;;8.90;5.60;;;;;;;;;;5055603;28;20025;-77
2023/08/03 03:04:16;;;;;;;6.22;5.10;;;;;;;;;;5055795;28;20138;-77
2023/08/03 03:06:42;;;;;;;6.60;5.55;;;;;;;;;;5055891;28;20479;-77
2023/08/03 03:09:09;;;;;;;7.63;5.40;;;;;;;;;;5055703;28;20036;-77
2023/08/03 03:11:35;;;;;;;7.65;5.30;;;;;;;;;;5055655;28;20029;-77
2023/08/03 03:14:01;;;;;;;5.93;5.30;;;;;;;;;;5055666;28;20029;-77
2023/08/03 03:16:27;;;;;;;6.35;5.75;;;;;;;;;;5055490;28;20032;-77
2023/08/03 03:18:53;;;;;;;6.45;5.38;;;;;;;;;;5055367;28;20024;-77
2023/08/03 03:21:22;;;;;;;7.78;5.57;;;;;;;;;;5055650;28;20132;-77
2023/08/03 03:23:48;;;;;;;7.72;5.50;;;;;;;;;;5055298;28;20024;-77
2023/08/03 03:26:14;;;;;;;10.48;5.80;;;;;;;;;;5055827;28;20108;-77
2023/08/03 03:28:41;;;;;;;6.60;5.90;;;;;;;;;;5055760;28;20033;-77
2023/08/03 03:31:07;;;;;;;7.88;4.97;;;;;;;;;;5055449;28;20033;-77
2023/08/03 03:33:33;;;;;;;7.90;5.50;;;;;;;;;;5055420;28;20043;-77
2023/08/03 03:35:59;;;;;;;7.70;5.53;;;;;;;;;;5054901;28;20066;-77
2023/08/03 03:38:25;;;;;;;8.45;5.68;;;;;;;;;;5054934;28;20499;-77
2023/08/03 03:40:51;;;;;;;6.75;5.70;;;;;;;;;;5054983;28;20033;-77
2023/08/03 03:43:18;;;;;;;8.18;5.38;;;;;;;;;;5055024;28;20140;-77
2023/08/03 03:45:44;;;;;;;10.10;5.97;;;;;;;;;;5054852;28;20446;-77
2023/08/03 03:48:10;;;;;;;7.80;5.60;;;;;;;;;;5054776;28;20062;-77
2023/08/03 03:50:36;;;;;;;8.18;5.82;;;;;;;;;;5054654;28;20524;-77
2023/08/03 03:53:02;;;;;;;7.07;5.55;;;;;;;;;;5054739;28;20033;-77
2023/08/03 03:55:28;;;;;;;7.10;5.65;;;;;;;;;;5054981;28;20104;-77
2023/08/03 03:57:55;;;;;;;8.02;5.40;;;;;;;;;;5054532;28;20127;-77
2023/08/03 04:00:21;;;;;;;5.93;5.18;;;;;;;;;;5054614;28;20033;-77
2023/08/03 04:02:49;;;;;;;6.05;5.22;;;;;;;;;;5054788;28;20048;-77
2023/08/03 04:05:15;;;;;;;6.70;5.13;;;;;;;;;;5054455;28;20024;-77
2023/08/03 04:07:41;;;;;;;6.13;5.30;;;;;;;;;;5054690;28;20047;-77
2023/08/03 04:10:07;;;;;;;6.90;5.70;;;;;;;;;;5053973;28;20048;-77
2023/08/03 04:12:33;;;;;;;6.50;5.60;;;;;;;;;;5054231;28;20033;-77
2023/08/03 04:14:59;;;;;;;6.63;5.90;;;;;;;;;;5054720;28;20033;-77
2023/08/03 04:17:25;;;;;;;7.63;5.18;;;;;;;;;;5054255;28;20025;-77
2023/08/03 04:19:51;;;;;;;7.88;5.63;;;;;;;;;;5054178;28;20379;-77
2023/08/03 04:22:18;;;;;;;5.90;5.30;;;;;;;;;;5054644;28;20029;-77
2023/08/03 04:24:44;;;;;;;7.00;5.40;;;;;;;;;;5054196;28;20025;-77
2023/08/03 04:27:10;;;;;;;6.88;5.60;;;;;;;;;;5054481;28;20475;-77
2023/08/03 04:29:36;;;;;;;6.93;5.20;;;;;;;;;;5054334;28;20521;-77
2023/08/03 04:32:02;;;;;;;9.85;6.07;;;;;;;;;;5054056;28;20029;-77
2023/08/03 04:34:30;;;;;;;8.90;5.80;;;;;;;;;;5054226;28;20155;-77
2023/08/03 04:36:56;;;;;;;7.43;5.63;;;;;;;;;;5054226;28;20048;-77
2023/08/03 04:39:22;;;;;;;7.47;5.85;;;;;;;;;;5053852;28;20882;-77
2023/08/03 04:41:48;;;;;;;7.65;5.72;;;;;;;;;;5053866;28;20025;-77
2023/08/03 04:44:14;;;;;;;9.13;5.80;;;;;;;;;;5053544;28;20467;-77
2023/08/03 04:46:44;;;;;;;6.53;5.60;;;;;;;;;;5053712;28;20029;-77
2023/08/03 04:49:13;;;;;;;9.13;6.00;;;;;;;;;;5054247;28;20021;-77
2023/08/03 04:51:39;;;;;;;7.32;5.75;;;;;;;;;;5053474;28;20047;-77
2023/08/03 04:54:08;;;;;;;8.98;6.00;;;;;;;;;;5053987;28;20021;-77
2023/08/03 04:56:34;;;;;;;7.47;6.40;;;;;;;;;;5053516;28;20025;-77
2023/08/03 04:59:00;;;;;;;10.27;6.20;;;;;;;;;;5053564;28;20155;-77
2023/08/03 05:01:26;;;;;;;7.78;5.90;;;;;;;;;;5053645;28;20028;-77
2023/08/03 05:03:52;;;;;;;9.35;5.80;;;;;;;;;;5053789;28;20887;-77
2023/08/03 05:06:18;;;;;;;7.88;5.90;;;;;;;;;;5053229;28;20060;-77
2023/08/03 05:08:46;;;;;;;7.00;6.07;;;;;;;;;;5053571;28;20075;-77
2023/08/03 05:11:12;;;;;;;12.50;6.53;;;;;;;;;;5052585;28;20028;-77
2023/08/03 05:13:41;;;;;;;7.78;6.05;;;;;;;;;;5053074;28;20486;-77
2023/08/03 05:16:08;;;;;;;7.65;6.15;;;;;;;;;;5053297;28;20029;-77
2023/08/03 05:18:37;;;;;;;8.65;6.32;;;;;;;;;;5053073;28;20807;-77
2023/08/03 05:21:12;;;;;;;9.68;6.05;;;;;;;;;;5052483;28;20435;-77
2023/08/03 05:23:38;;;;;;;8.95;5.60;;;;;;;;;;5052981;28;20025;-77
2023/08/03 05:26:04;;;;;;;9.57;5.88;;;;;;;;;;5053194;28;20067;-77
2023/08/03 05:28:32;;;;;;;6.97;5.72;;;;;;;;;;5052761;28;20550;-77
2023/08/03 05:30:58;;;;;;;8.15;6.10;;;;;;;;;;5052977;28;20040;-77
2023/08/03 05:33:24;;;;;;;8.13;5.82;;;;;;;;;;5052738;28;20084;-77
2023/08/03 05:35:50;;;;;;;6.97;5.57;;;;;;;;;;5052851;28;20390;-77
2023/08/03 05:38:16;;;;;;;9.40;6.00;;;;;;;;;;5052481;28;20060;-77
2023/08/03 05:40:42;;;;;;;6.75;5.85;;;;;;;;;;5053003;28;20028;-77
2023/08/03 05:43:13;;;;;;;7.15;5.65;;;;;;;;;;5053093;28;20025;-77
2023/08/03 05:48:20;;;;;;;7.55;5.55;;;;;;;;;;5069627;28;21201;-76
2023/08/03 05:50:55;;;;;;;9.13;5.93;;;;;;;;;;5069661;28;20028;-76
2023/08/03 05:53:21;;;;;;;6.53;5.88;;;;;;;;;;5069581;28;20033;-76
2023/08/03 05:55:47;;;;;;;8.02;5.63;;;;;;;;;;5069699;28;20031;-76
2023/08/03 05:58:15;;;;;;;5.97;5.18;;;;;;;;;;5069405;28;20087;-77
2023/08/03 06:00:41;;;;;;;9.35;5.60;;;;;;;;;;5069413;28;20064;-76
2023/08/03 06:03:12;;;;;;;7.57;5.43;;;;;;;;;;5068856;28;20493;-76
2023/08/03 06:08:18;;;;;;;6.25;4.90;;;;;;;;;;5069541;28;20368;-76
2023/08/03 06:10:46;;;;;;;7.20;4.80;;;;;;;;;;5069454;28;20103;-77
2023/08/03 06:13:13;;;;;;;6.38;4.65;;;;;;;;;;5069199;28;20056;-77
2023/08/03 06:15:40;;;;;;;6.15;4.82;;;;;;;;;;5069255;28;20127;-76
2023/08/03 06:18:09;;;;;;;7.65;4.93;;;;;;;;;;5069143;28;20108;-73
2023/08/03 06:20:35;;;;;;;6.13;4.80;;;;;;;;;;5069025;28;20020;-73
2023/08/03 06:23:03;;;;;;;6.80;4.93;;;;;;;;;;5068991;28;20033;-73
2023/08/03 06:25:29;;;;;;;7.07;4.57;;;;;;;;;;5068955;28;20471;-73
2023/08/03 06:27:57;;;;;;;5.47;4.80;;;;;;;;;;5063734;28;20069;-74
2023/08/03 06:30:23;;;;;;;6.30;4.70;;;;;;;;;;5066656;28;20078;-73
2023/08/03 06:32:50;;;;;;;7.13;5.03;;;;;;;;;;5068838;28;20173;-73
2023/08/03 06:35:36;;;;;;;7.18;4.82;;;;;;;;;;5068951;28;20029;-73
2023/08/03 06:38:04;;;;;;;5.97;4.72;;;;;;;;;;5067888;28;20052;-74
2023/08/03 06:40:30;;;;;;;7.00;4.53;;;;;;;;;;5068736;28;20029;-73
2023/08/03 06:42:57;;;;;;;7.13;4.93;;;;;;;;;;5068416;28;20385;-74
2023/08/03 06:45:23;;;;;;;7.28;5.10;;;;;;;;;;5068478;28;20084;-73
2023/08/03 06:47:49;;;;;;;8.95;5.22;;;;;;;;;;5067938;28;20111;-74
2023/08/03 06:50:16;;;;;;;6.82;5.30;;;;;;;;;;5068204;28;20521;-73
2023/08/03 06:52:43;;;;;;;9.32;5.60;;;;;;;;;;5068075;28;20025;-73
2023/08/03 06:55:09;;;;;;;9.13;5.80;;;;;;;;;;5067180;28;20106;-73
2023/08/03 06:57:35;;;;;;;7.70;5.03;;;;;;;;;;5067879;28;20470;-73
2023/08/03 07:00:01;;;;;;;6.50;5.25;;;;;;;;;;5067549;28;20025;-73
2023/08/03 07:02:27;;;;;;;9.32;5.18;;;;;;;;;;5067877;28;20033;-73
2023/08/03 07:04:53;;;;;;;7.25;5.22;;;;;;;;;;5067042;28;20017;-73
2023/08/03 07:07:19;;;;;;;9.02;5.68;;;;;;;;;;5066560;28;20589;-74
2023/08/03 07:09:49;;;;;;;7.10;5.03;;;;;;;;;;5066772;28;20387;-73
2023/08/03 07:12:15;;;;;;;9.27;5.30;;;;;;;;;;5066155;28;20166;-73
2023/08/03 07:14:44;;;;;;;9.70;5.05;;;;;;;;;;5061317;28;20394;-77
2023/08/03 07:17:11;;;;;;;9.05;5.70;;;;;;;;;;5048211;28;20029;-77
2023/08/03 07:19:37;;;;;;;8.98;5.70;;;;;;;;;;5047437;28;20025;-78
2023/08/03 07:22:05;;;;;;;8.77;5.72;;;;;;;;;;5045820;28;20049;-75
2023/08/03 07:24:33;;;;;;;8.20;5.15;;;;;;;;;;5043630;28;20036;-74
2023/08/03 07:27:02;;;;;;;8.05;5.47;;;;;;;;;;5034925;28;20467;-78
2023/08/03 07:29:29;;;;;;;10.32;5.20;;;;;;;;;;5053200;28;20036;-74
2023/08/03 07:31:56;;;;;;;9.02;5.30;;;;;;;;;;5052450;28;20902;-76
2023/08/03 07:34:22;;;;;;;8.57;5.45;;;;;;;;;;5046936;28;20025;-77
2023/08/03 07:36:51;;;;;;;10.05;5.40;;;;;;;;;;5054078;28;20033;-72
2023/08/03 07:39:17;;;;;;;12.35;5.18;;;;;;;;;;5054602;28;20033;-76
2023/08/03 07:41:44;;;;;;;10.13;5.35;;;;;;;;;;5054517;28;20025;-73
2023/08/03 07:44:13;;;;;;;10.23;5.97;;;;;;;;;;5052432;28;20070;-78
2023/08/03 07:46:39;;;;;;;10.90;6.05;;;;;;;;;;5050715;28;20032;-75
2023/08/03 07:49:05;;;;;;;11.05;5.82;;;;;;;;;;5046594;28;20144;-76
2023/08/03 07:51:31;;;;;;;8.70;5.50;;;;;;;;;;5040217;28;20800;-74
2023/08/03 07:53:57;;;;;;;9.25;5.47;;;;;;;;;;5047650;28;20508;-75
2023/08/03 07:56:23;;;;;;;9.32;5.53;;;;;;;;;;5048886;28;20052;-78
2023/08/03 07:59:04;;;;;;;12.70;5.43;;;;;;;;;;5048046;28;20036;-77
2023/08/03 08:01:31;;;;;;;8.02;5.72;;;;;;;;;;5003166;28;20058;-79
2023/08/03 08:03:57;;;;;;;11.43;5.65;;;;;;;;;;4969288;28;20035;-78
2023/08/03 08:06:23;;;;;;;11.77;5.68;;;;;;;;;;4972357;28;20054;-79
2023/08/03 08:08:51;;;;;;;9.82;5.50;;;;;;;;;;4970742;28;20505;-77
2023/08/03 08:11:21;;;;;;;10.38;5.28;;;;;;;;;;4971152;28;20095;-77
2023/08/03 08:13:48;;;;;;;8.68;5.70;;;;;;;;;;4973449;28;20023;-77
2023/08/03 08:16:16;;;;;;;9.85;6.13;;;;;;;;;;4965426;28;20036;-77
2023/08/03 08:18:50;;;;;;;9.20;5.78;;;;;;;;;;4970267;28;20061;-78
2023/08/03 08:21:16;;;;;;;8.75;6.07;;;;;;;;;;4970990;28;20678;-78
2023/08/03 08:23:42;;;;;;;7.22;5.55;;;;;;;;;;4971232;28;20089;-78
2023/08/03 08:26:15;;;;;;;10.63;5.50;;;;;;;;;;4968716;28;20536;-77
2023/08/03 08:28:56;;;;;;;7.95;5.40;;;;;;;;;;4973362;28;20371;-77
2023/08/03 08:31:23;;;;;;;7.82;5.47;;;;;;;;;;4959861;28;20039;-76
2023/08/03 08:33:50;;;;;;;7.78;5.40;;;;;;;;;;4968513;28;20026;-77
2023/08/03 08:36:32;;;;;;;7.50;4.93;;;;;;;;;;4975768;28;20077;-77
2023/08/03 08:38:58;;;;;;;8.02;5.05;;;;;;;;;;4971287;28;20034;-75
2023/08/03 08:41:35;;;;;;;9.55;5.15;;;;;;;;;;4968731;28;20119;-75
2023/08/03 08:44:20;;;;;;;7.10;4.78;;;;;;;;;;4963884;28;20058;-80
2023/08/03 08:46:49;;;;;;;7.68;4.90;;;;;;;;;;4966297;28;20093;-79
2023/08/03 08:49:49;;;;;;;7.25;4.80;;;;;;;;;;4966157;28;20433;-81
2023/08/03 08:52:12;;;;;;;7.93;5.00;;;;;;;;;;4968540;28;20031;-75
2023/08/03 08:54:44;;;;;;;9.80;4.85;;;;;;;;;;4972476;28;20035;-78
2023/08/03 08:57:10;;;;;;;11.93;4.93;;;;;;;;;;4967537;28;20066;-76
2023/08/03 08:59:37;;;;;;;11.27;5.72;;;;;;;;;;4973532;28;20450;-81
2023/08/03 09:02:11;;;;;;;9.20;6.30;;;;;;;;;;4973097;28;20480;-76
2023/08/03 09:04:40;;;;;;;12.00;6.95;;;;;;;;;;4974994;28;20089;-76
2023/08/03 09:10:03;;;;;;;9.00;6.38;;;;;;;;;;4965551;28;20025;-78
2023/08/03 09:13:17;;;;;;;;;;;;;;;;;;;;;
2023/08/03 09:18:56;;;;;;;8.45;5.53;;;;;;;;;;4992847;28;20038;-79
2023/08/03 09:21:25;;;;;;;7.28;5.78;;;;;;;;;;4971884;28;20481;-77
2023/08/03 09:23:52;;;;;;;7.80;5.38;;;;;;;;;;4971123;28;20055;-79
2023/08/03 09:26:29;;;;;;;7.28;5.57;;;;;;;;;;4971721;28;20088;-79
2023/08/03 09:29:13;;;;;;;7.22;5.35;;;;;;;;;;4974026;28;20023;-76
2023/08/03 09:31:39;;;;;;;7.88;5.35;;;;;;;;;;4965888;28;20086;-79
2023/08/03 09:34:08;;;;;;;7.95;5.18;;;;;;;;;;4961371;28;20023;-76
2023/08/03 09:36:55;;;;;;;7.10;4.95;;;;;;;;;;4966479;28;20389;-76
2023/08/03 09:39:32;;;;;;;7.20;5.10;;;;;;;;;;5002082;28;20540;-80
2023/08/03 09:42:06;;;;;;;9.50;5.53;;;;;;;;;;4966808;28;20058;-79
2023/08/03 09:44:41;;;;;;;15.63;5.20;;;;;;;;;;4968910;28;20113;-80
2023/08/03 09:47:07;;;;;;;5.68;4.90;;;;;;;;;;4971945;28;20486;-80
2023/08/03 09:49:33;;;;;;;8.93;5.38;;;;;;;;;;4973192;28;20475;-75
2023/08/03 09:52:06;;;;;;;6.25;4.97;;;;;;;;;;4963702;28;20115;-76
2023/08/03 09:54:36;;;;;;;;;;;;;;;;;;4963787;28;20019;-76
2023/08/03 09:57:09;;;;;;;11.65;5.88;;;;;;;;;;4969473;28;19916;-75
2023/08/03 09:59:40;;;;;;;8.70;5.30;;;;;;;;;;4964097;28;20057;-76
2023/08/03 10:02:09;;;;;;;8.23;5.35;;;;;;;;;;4967319;28;20453;-76
2023/08/03 10:04:52;;;;;;;7.50;5.07;;;;;;;;;;4966130;28;20420;-76
2023/08/03 10:07:26;;;;;;;8.05;5.20;;;;;;;;;;4964302;28;20067;-73
2023/08/03 10:13:14;;;;;;;17.08;5.60;;;;;;;;;;4970460;28;20077;-79
2023/08/03 10:15:41;;;;;;;8.60;5.60;;;;;;;;;;4969810;28;20126;-75
2023/08/03 10:18:07;;;;;;;8.05;5.78;;;;;;;;;;4972856;28;20133;-77
2023/08/03 10:20:37;;;;;;;7.55;5.07;;;;;;;;;;4971535;28;20433;-75
2023/08/03 10:23:15;;;;;;;7.93;5.07;;;;;;;;;;4972290;28;20031;-73
2023/08/03 10:31:25;;;;;;;10.63;5.95;;;;;;;;;;5100033;27;20461;-79
2023/08/03 10:36:55;;;;;;;15.50;6.45;;;;;;;;;;5048588;28;20385;-75
2023/08/03 10:42:49;;;;;;;10.90;6.65;;;;;;;;;;5042903;28;20079;-79
2023/08/03 10:48:21;;;;;;;96.85;41.95;;;;;;;;;;5163204;27;20415;-80
2023/08/03 10:50:58;;;;;;;32.40;15.70;;;;;;;;;;5137989;27;20019;-81
2023/08/03 10:53:50;;;;;;;276.35;124.13;;;;;;;;;;5143799;27;20055;-79
2023/08/03 10:56:22;;;;;;;60.85;27.77;;;;;;;;;;5113389;27;20122;-78
2023/08/03 10:59:04;;;;;;;51.63;24.35;;;;;;;;;;5060340;28;20063;-78
2023/08/03 11:01:30;;;;;;;37.28;18.15;;;;;;;;;;5056098;28;20123;-76
2023/08/03 11:03:59;;;;;;;35.97;17.58;;;;;;;;;;5066263;28;20498;-79
2023/08/03 11:06:27;;;;;;;33.42;16.50;;;;;;;;;;5067690;28;20421;-76
2023/08/03 11:08:54;;;;;;;25.10;13.32;;;;;;;;;;5069001;28;20160;-75
2023/08/03 11:11:44;;;;;;;24.75;12.18;;;;;;;;;;5067064;28;20434;-76
2023/08/03 11:14:23;;;;;;;21.92;10.68;;;;;;;;;;5066568;28;20174;-78
2023/08/03 11:19:53;;;;;;;16.02;8.93;;;;;;;;;;5059835;28;20036;-73
2023/08/03 11:22:21;;;;;;;16.45;8.50;;;;;;;;;;5065588;28;20036;-72
2023/08/03 11:24:48;;;;;;;15.05;8.32;;;;;;;;;;5066893;28;20064;-74
2023/08/03 11:27:53;;;;;;;11.80;7.32;;;;;;;;;;5063507;28;20106;-73
2023/08/03 11:30:21;;;;;;;11.50;7.00;;;;;;;;;;5067191;28;20049;-74
2023/08/03 11:32:50;;;;;;;14.60;7.68;;;;;;;;;;5067772;28;20397;-77
2023/08/03 11:35:16;;;;;;;17.73;7.60;;;;;;;;;;5068713;28;20083;-77
2023/08/03 11:41:03;;;;;;;10.93;6.20;;;;;;;;;;5050545;28;20114;-77
2023/08/03 11:43:32;;;;;;;9.82;5.80;;;;;;;;;;5066672;28;20109;-77
2023/08/03 11:49:04;;;;;;;17.55;6.53;;;;;;;;;;5015605;28;20846;-80
2023/08/03 11:51:42;;;;;;;13.07;6.60;;;;;;;;;;5060203;28;20033;-74
2023/08/03 11:54:10;;;;;;;17.52;6.57;;;;;;;;;;5065813;28;20029;-74
2023/08/03 11:56:40;;;;;;;12.35;5.80;;;;;;;;;;5067724;28;20025;-75
2023/08/03 11:59:09;;;;;;;13.50;5.45;;;;;;;;;;5056244;28;20021;-74
2023/08/03 12:01:49;;;;;;;13.85;5.82;;;;;;;;;;5054153;28;20041;-77
2023/08/03 12:04:26;;;;;;;12.77;5.82;;;;;;;;;;5054735;28;20035;-75
2023/08/03 12:06:53;;;;;;;11.23;5.63;;;;;;;;;;5053375;28;20044;-74
2023/08/03 12:09:35;;;;;;;15.77;6.03;;;;;;;;;;5054692;28;20074;-83
2023/08/03 12:12:03;;;;;;;10.57;6.10;;;;;;;;;;5056391;28;20064;-78
2023/08/03 12:14:30;;;;;;;10.77;6.38;;;;;;;;;;5054964;28;20033;-80
2023/08/03 12:16:57;;;;;;;11.07;6.20;;;;;;;;;;5055210;28;20145;-78
2023/08/03 12:19:33;;;;;;;;;;;;;;;;;;;;;
2023/08/03 12:22:08;;;;;;;12.50;5.93;;;;;;;;;;5054752;28;20478;-80
2023/08/03 12:24:43;;;;;;;10.32;5.82;;;;;;;;;;5054978;28;20128;-78
2023/08/03 12:27:17;;;;;;;9.98;5.90;;;;;;;;;;5034441;28;20072;-77
2023/08/03 12:29:43;;;;;;;10.82;6.03;;;;;;;;;;5034995;28;20379;-78
2023/08/03 12:32:11;;;;;;;10.38;5.55;;;;;;;;;;5034534;28;20025;-76
2023/08/03 12:34:37;;;;;;;7.63;5.60;;;;;;;;;;5034330;28;20079;-77
2023/08/03 12:37:04;;;;;;;7.88;5.38;;;;;;;;;;5033745;28;20076;-74
2023/08/03 12:39:30;;;;;;;8.65;5.63;;;;;;;;;;5034708;28;20360;-78
2023/08/03 12:45:26;;;;;;;8.50;5.30;;;;;;;;;;5069346;28;20021;-80
2023/08/03 12:47:55;;;;;;;7.15;4.90;;;;;;;;;;5070565;28;20060;-85
2023/08/03 12:50:22;;;;;;;9.32;5.18;;;;;;;;;;5065724;28;20075;-78
2023/08/03 12:56:37;;;;;;;;;;;;;;;;;;;;;
2023/08/03 12:56:55;;;;;;;9.20;5.68;;;;;;;;;;5052641;28;20431;-80
2023/08/03 12:59:04;;;;;;;8.73;5.60;;;;;;;;;;5029271;28;20745;-80
2023/08/03 13:02:31;;;;;;;;;;;;;;;;;;;;;
2023/08/03 13:04:35;;;;;;;9.63;5.13;;;;;;;;;;5049376;28;20052;-74
2023/08/03 13:07:13;;;;;;;9.32;5.10;;;;;;;;;;5073187;28;20044;-72
2023/08/03 13:09:39;;;;;;;11.85;5.03;;;;;;;;;;5066636;28;20039;-74
2023/08/03 13:12:24;;;;;;;8.05;4.80;;;;;;;;;;5058994;28;20048;-72
2023/08/03 13:14:53;;;;;;;8.65;5.10;;;;;;;;;;5066010;28;20045;-72
2023/08/03 13:17:19;;;;;;;8.82;4.88;;;;;;;;;;5064460;28;20698;-72
2023/08/03 13:19:48;;;;;;;9.80;4.78;;;;;;;;;;5059422;28;20479;-73
2023/08/03 13:22:22;;;;;;;9.98;5.47;;;;;;;;;;5057428;28;20109;-73
2023/08/03 13:27:56;;;;;;;10.77;5.30;;;;;;;;;;5029286;28;20075;-74
2023/08/03 13:27:59;;;;;;;9.95;5.15;;;;;;;;;;5067626;28;20363;-74
2023/08/03 13:30:26;;;;;;;9.23;5.28;;;;;;;;;;5071603;28;20068;-73
2023/08/03 13:32:55;;;;;;;8.45;4.75;;;;;;;;;;5072072;28;20059;-73
2023/08/03 13:35:21;;;;;;;7.45;5.13;;;;;;;;;;5071695;28;20484;-74
2023/08/03 13:37:48;;;;;;;10.88;4.93;;;;;;;;;;5072669;28;20020;-73
2023/08/03 13:46:21;;;;;;;8.10;4.80;;;;;;;;;;5064472;28;19970;-74
2023/08/03 13:49:07;;;;;;;6.97;4.25;;;;;;;;;;5068171;28;20103;-74
2023/08/03 13:51:33;;;;;;;7.10;4.53;;;;;;;;;;5054383;28;20539;-73
2023/08/03 13:56:58;;;;;;;8.05;4.63;;;;;;;;;;5069511;28;20180;-75
2023/08/03 13:59:28;;;;;;;7.85;4.55;;;;;;;;;;5061625;28;20123;-74
2023/08/03 14:01:54;;;;;;;8.43;4.78;;;;;;;;;;5052168;28;20033;-72
2023/08/03 14:04:23;;;;;;;9.00;4.50;;;;;;;;;;5056837;28;20494;-74
2023/08/03 14:07:11;;;;;;;8.05;4.75;;;;;;;;;;5071480;28;20038;-74
2023/08/03 14:09:56;;;;;;;5.93;4.40;;;;;;;;;;5070352;28;20032;-75
2023/08/03 14:12:52;;;;;;;6.60;4.32;;;;;;;;;;5050330;28;20533;-75
2023/08/03 14:18:55;;;;;;;7.65;4.65;;;;;;;;;;5071959;28;20044;-72
2023/08/03 14:21:20;;;;;;;8.30;4.95;;;;;;;;;;5043431;28;20048;-75
2023/08/03 14:23:47;;;;;;;10.43;4.70;;;;;;;;;;5070785;28;20035;-72
2023/08/03 14:26:13;;;;;;;6.18;4.50;;;;;;;;;;5071602;28;20037;-73
2023/08/03 14:28:39;;;;;;;5.57;4.07;;;;;;;;;;5069606;28;20525;-72
2023/08/03 14:31:14;;;;;;;6.43;4.38;;;;;;;;;;5070344;28;20040;-75
2023/08/03 14:33:50;;;;;;;7.57;4.30;;;;;;;;;;5068532;28;20512;-74
2023/08/03 14:36:19;;;;;;;6.72;4.60;;;;;;;;;;5071649;28;20470;-74
2023/08/03 14:38:48;;;;;;;7.20;3.85;;;;;;;;;;5070956;28;20033;-74
2023/08/03 14:41:27;;;;;;;5.80;4.38;;;;;;;;;;5067726;28;20040;-73
2023/08/03 14:43:54;;;;;;;5.82;4.00;;;;;;;;;;5066539;28;20108;-72
2023/08/03 14:46:20;;;;;;;5.90;4.40;;;;;;;;;;5070659;28;20052;-75
2023/08/03 14:48:49;;;;;;;6.05;4.10;;;;;;;;;;5072233;28;20035;-76
2023/08/03 14:51:15;;;;;;;6.50;4.10;;;;;;;;;;5068895;28;20032;-75
2023/08/03 14:53:42;;;;;;;5.15;4.00;;;;;;;;;;5072430;28;20051;-74
2023/08/03 14:56:08;;;;;;;5.72;4.10;;;;;;;;;;5071549;28;20478;-74
2023/08/03 14:58:36;;;;;;;4.93;3.58;;;;;;;;;;5071184;28;20501;-71
2023/08/03 15:01:07;;;;;;;5.68;3.92;;;;;;;;;;5070126;28;20115;-73
2023/08/03 15:03:34;;;;;;;5.60;3.85;;;;;;;;;;5058614;28;20040;-73
2023/08/03 15:06:10;;;;;;;5.57;3.72;;;;;;;;;;5072069;28;21930;-74
2023/08/03 15:08:36;;;;;;;7.13;4.03;;;;;;;;;;5071978;28;20458;-73
2023/08/03 15:11:05;;;;;;;9.18;4.45;;;;;;;;;;5070548;28;20489;-74
2023/08/03 15:13:32;;;;;;;5.07;3.92;;;;;;;;;;5070417;28;20055;-74
2023/08/03 15:16:08;;;;;;;6.10;3.88;;;;;;;;;;5068946;28;20077;-72
2023/08/03 15:18:37;;;;;;;5.22;3.60;;;;;;;;;;5071608;28;20112;-73
2023/08/03 15:21:30;;;;;;;;;;;;;;;;;;;;;
2023/08/03 15:27:58;;;;;;;12.07;4.13;;;;;;;;;;5029394;28;20059;-73
2023/08/03 15:30:25;;;;;;;9.13;4.50;;;;;;;;;;4990235;28;20030;-74
2023/08/03 15:32:52;;;;;;;9.20;4.50;;;;;;;;;;5060109;28;20037;-71
2023/08/03 15:35:30;;;;;;;5.55;4.90;;;;;;;;;;5075090;28;20052;-72
2023/08/03 15:38:00;;;;;;;6.90;4.47;;;;;;;;;;5075667;28;20090;-71
2023/08/03 15:40:35;;;;;;;8.23;4.95;;;;;;;;;;5074720;28;20036;-71
2023/08/03 15:43:01;;;;;;;7.70;5.00;;;;;;;;;;5074895;28;20041;-71
2023/08/03 15:45:28;;;;;;;8.38;5.00;;;;;;;;;;5075190;28;20431;-71
2023/08/03 15:47:54;;;;;;;8.80;5.32;;;;;;;;;;5074669;28;20517;-71
2023/08/03 15:53:34;;;;;;;15.77;5.55;;;;;;;;;;5032688;28;20403;-71
2023/08/03 15:56:01;;;;;;;11.55;4.97;;;;;;;;;;5074793;28;20017;-74
2023/08/03 15:58:27;;;;;;;8.00;4.47;;;;;;;;;;5074915;28;20054;-73
2023/08/03 16:00:54;;;;;;;13.90;4.72;;;;;;;;;;5074604;28;20473;-73